createdAt,value
2023-02-23T00:00:16.916Z,94.2
2023-02-23T00:01:18.116Z,94.3
2023-02-23T00:02:17.477Z,94.4
2023-02-23T00:03:17.048Z,94.8
2023-02-23T00:04:16.537Z,94.9
2023-02-23T00:05:17.047Z,94.8
2023-02-23T00:06:16.524Z,94.8
2023-02-23T00:07:17.010Z,94.7
2023-02-23T00:08:16.486Z,94.7
2023-02-23T00:09:16.950Z,94.6
2023-02-23T00:10:17.440Z,94.5
2023-02-23T00:11:17.809Z,94.4
2023-02-23T00:12:17.348Z,94.5
2023-02-23T00:13:17.125Z,94.7
2023-02-23T00:14:16.627Z,94.8
2023-02-23T00:15:17.131Z,94.8
2023-02-23T00:16:16.724Z,94.8
2023-02-23T00:17:17.250Z,94.7
2023-02-23T00:18:16.741Z,94.6
2023-02-23T00:19:17.611Z,94.6
2023-02-23T00:20:17.161Z,94.7
2023-02-23T00:21:17.410Z,94.7
2023-02-23T00:22:17.047Z,94.7
2023-02-23T00:23:16.530Z,94.7
2023-02-23T00:24:17.051Z,94.7
2023-02-23T00:25:16.569Z,95.0
2023-02-23T00:26:17.067Z,95.0
2023-02-23T00:27:16.564Z,94.9
2023-02-23T00:28:17.107Z,94.9
2023-02-23T00:29:16.618Z,94.8
2023-02-23T00:30:17.138Z,94.8
2023-02-23T00:31:17.391Z,94.9
2023-02-23T00:32:17.323Z,95.0
2023-02-23T00:33:16.878Z,95.1
2023-02-23T00:34:17.387Z,95.1
2023-02-23T00:35:16.942Z,95.2
2023-02-23T00:36:17.459Z,95.2
2023-02-23T00:37:17.015Z,95.2
2023-02-23T00:38:16.520Z,95.1
2023-02-23T00:39:17.037Z,95.2
2023-02-23T00:40:16.549Z,95.2
2023-02-23T00:41:17.807Z,95.2
2023-02-23T00:42:16.532Z,95.1
2023-02-23T00:43:17.023Z,95.1
2023-02-23T00:44:16.540Z,95.1
2023-02-23T00:45:17.028Z,95.2
2023-02-23T00:46:16.698Z,95.3
2023-02-23T00:47:17.239Z,95.3
2023-02-23T00:48:16.712Z,95.3
2023-02-23T00:49:17.222Z,95.4
2023-02-23T00:50:16.732Z,95.3
2023-02-23T00:51:18.000Z,95.4
2023-02-23T00:52:16.948Z,95.4
2023-02-23T00:53:17.443Z,95.4
2023-02-23T00:54:16.959Z,95.4
2023-02-23T00:55:17.528Z,95.4
2023-02-23T00:56:17.050Z,95.6
2023-02-23T00:57:16.565Z,95.7
2023-02-23T00:58:17.065Z,95.6
2023-02-23T00:59:16.549Z,95.5
2023-02-23T01:00:17.051Z,95.5
2023-02-23T01:01:17.201Z,95.4
2023-02-23T01:02:17.309Z,95.5
2023-02-23T01:03:16.803Z,95.5
2023-02-23T01:04:17.308Z,95.5
2023-02-23T01:05:16.861Z,95.4
2023-02-23T01:06:17.373Z,95.4
2023-02-23T01:07:16.890Z,95.4
2023-02-23T01:08:17.392Z,95.4
2023-02-23T01:09:16.900Z,95.4
2023-02-23T01:10:17.410Z,95.5
2023-02-23T01:11:17.703Z,95.4
2023-02-23T01:12:17.022Z,95.6
2023-02-23T01:13:16.521Z,95.6
2023-02-23T01:14:17.002Z,95.5
2023-02-23T01:15:16.487Z,95.5
2023-02-23T01:16:16.982Z,95.7
2023-02-23T01:17:16.462Z,95.6
2023-02-23T01:18:16.961Z,95.6
2023-02-23T01:19:17.426Z,95.6
2023-02-23T01:20:16.963Z,95.9
2023-02-23T01:21:18.189Z,95.8
2023-02-23T01:22:16.967Z,95.8
2023-02-23T01:23:16.516Z,95.8
2023-02-23T01:24:17.013Z,95.9
2023-02-23T01:25:16.580Z,95.9
2023-02-23T01:26:17.150Z,95.7
2023-02-23T01:27:16.690Z,95.7
2023-02-23T01:28:17.167Z,95.6
2023-02-23T01:29:16.674Z,95.5
2023-02-23T01:30:17.169Z,95.4
2023-02-23T01:31:17.537Z,95.4
2023-02-23T01:32:17.578Z,95.4
2023-02-23T01:33:17.104Z,95.3
2023-02-23T01:34:16.624Z,95.3
2023-02-23T01:35:17.168Z,95.3
2023-02-23T01:36:16.693Z,95.2
2023-02-23T01:37:17.167Z,95.2
2023-02-23T01:38:16.660Z,95.2
2023-02-23T01:39:17.150Z,95.2
2023-02-23T01:40:16.632Z,95.2
2023-02-23T01:41:18.062Z,95.2
2023-02-23T01:42:17.393Z,95.1
2023-02-23T01:43:16.885Z,95.1
2023-02-23T01:44:17.385Z,95.1
2023-02-23T01:45:16.892Z,95.2
2023-02-23T01:46:17.473Z,95.2
2023-02-23T01:47:16.970Z,95.3
2023-02-23T01:48:16.473Z,95.4
2023-02-23T01:49:16.976Z,95.5
2023-02-23T01:50:16.499Z,95.6
2023-02-23T01:51:17.709Z,95.6
2023-02-23T01:52:16.457Z,95.6
2023-02-23T01:53:16.949Z,95.6
2023-02-23T01:54:17.498Z,95.6
2023-02-23T01:55:16.973Z,95.6
2023-02-23T01:56:16.448Z,95.6
2023-02-23T01:57:16.942Z,95.6
2023-02-23T01:58:17.406Z,95.6
2023-02-23T01:59:16.931Z,95.6
2023-02-23T02:00:17.446Z,95.6
2023-02-23T02:01:17.446Z,95.7
2023-02-23T02:02:17.270Z,95.7
2023-02-23T02:03:16.770Z,95.7
2023-02-23T02:04:17.255Z,95.7
2023-02-23T02:05:16.798Z,95.6
2023-02-23T02:06:17.322Z,95.5
2023-02-23T02:07:16.803Z,95.5
2023-02-23T02:08:17.275Z,95.5
2023-02-23T02:09:16.769Z,95.5
2023-02-23T02:10:17.300Z,95.5
2023-02-23T02:11:17.599Z,95.5
2023-02-23T02:12:17.307Z,95.5
2023-02-23T02:13:16.826Z,95.5
2023-02-23T02:14:17.324Z,95.5
2023-02-23T02:15:16.833Z,95.5
2023-02-23T02:16:17.492Z,95.5
2023-02-23T02:17:17.005Z,95.5
2023-02-23T02:18:16.500Z,95.5
2023-02-23T02:19:17.054Z,95.6
2023-02-23T02:20:16.608Z,95.6
2023-02-23T02:21:17.650Z,95.6
2023-02-23T02:22:16.532Z,95.6
2023-02-23T02:23:17.018Z,95.6
2023-02-23T02:24:16.487Z,95.6
2023-02-23T02:25:16.988Z,95.6
2023-02-23T02:26:16.502Z,95.6
2023-02-23T02:27:17.020Z,95.6
2023-02-23T02:28:16.503Z,95.6
2023-02-23T02:29:17.021Z,95.7
2023-02-23T02:30:16.551Z,95.7
2023-02-23T02:31:18.030Z,95.7
2023-02-23T02:32:16.561Z,95.7
2023-02-23T02:33:17.072Z,95.7
2023-02-23T02:34:16.585Z,95.8
2023-02-23T02:35:17.073Z,95.9
2023-02-23T02:36:16.564Z,96.0
2023-02-23T02:37:17.099Z,96.0
2023-02-23T02:38:16.622Z,96.0
2023-02-23T02:39:17.103Z,95.9
2023-02-23T02:40:16.687Z,95.9
2023-02-23T02:41:18.014Z,95.9
2023-02-23T02:42:16.931Z,95.9
2023-02-23T02:43:17.429Z,95.9
2023-02-23T02:44:16.950Z,96.0
2023-02-23T02:45:17.591Z,96.0
2023-02-23T02:46:17.308Z,96.0
2023-02-23T02:47:16.897Z,95.9
2023-02-23T02:48:17.434Z,96.0
2023-02-23T02:49:16.942Z,96.0
2023-02-23T02:50:17.472Z,96.1
2023-02-23T02:51:17.766Z,95.9
2023-02-23T02:52:17.331Z,96.0
2023-02-23T02:53:16.860Z,96.0
2023-02-23T02:54:17.366Z,96.1
2023-02-23T02:55:16.872Z,96.2
2023-02-23T02:56:17.356Z,96.4
2023-02-23T02:57:16.877Z,96.4
2023-02-23T02:58:17.418Z,96.4
2023-02-23T02:59:16.914Z,96.4
2023-02-23T03:00:17.488Z,96.4
2023-02-23T03:01:17.999Z,96.4
2023-02-23T03:02:16.688Z,96.4
2023-02-23T03:03:17.181Z,96.5
2023-02-23T03:04:16.664Z,96.5
2023-02-23T03:05:17.476Z,96.4
2023-02-23T03:06:17.004Z,96.4
2023-02-23T03:07:16.528Z,96.3
2023-02-23T03:08:17.020Z,96.3
2023-02-23T03:09:16.554Z,96.3
2023-02-23T03:10:17.100Z,96.2
2023-02-23T03:11:17.176Z,96.3
2023-02-23T03:12:17.202Z,96.2
2023-02-23T03:13:16.691Z,96.2
2023-02-23T03:14:17.203Z,96.1
2023-02-23T03:15:16.485Z,96.1
2023-02-23T03:16:17.078Z,96.2
2023-02-23T03:17:16.625Z,96.3
2023-02-23T03:18:17.248Z,96.4
2023-02-23T03:19:16.798Z,96.4
2023-02-23T03:20:17.352Z,96.4
2023-02-23T03:21:17.689Z,96.5
2023-02-23T03:22:16.567Z,96.6
2023-02-23T03:23:17.064Z,96.7
2023-02-23T03:24:16.604Z,96.7
2023-02-23T03:25:17.117Z,96.7
2023-02-23T03:26:16.646Z,96.6
2023-02-23T03:27:17.152Z,96.6
2023-02-23T03:28:16.659Z,96.6
2023-02-23T03:29:17.151Z,96.7
2023-02-23T03:30:16.640Z,96.7
2023-02-23T03:31:17.962Z,96.7
2023-02-23T03:32:16.696Z,96.8
2023-02-23T03:33:17.264Z,96.8
2023-02-23T03:34:16.766Z,96.9
2023-02-23T03:35:17.313Z,96.9
2023-02-23T03:36:16.782Z,96.8
2023-02-23T03:37:17.326Z,96.8
2023-02-23T03:38:16.854Z,96.7
2023-02-23T03:39:17.358Z,96.8
2023-02-23T03:40:16.858Z,96.8
2023-02-23T03:41:17.991Z,96.9
2023-02-23T03:42:17.200Z,97.0
2023-02-23T03:43:16.681Z,97.0
2023-02-23T03:44:17.158Z,97.1
2023-02-23T03:45:16.684Z,97.1
2023-02-23T03:46:17.162Z,97.1
2023-02-23T03:47:16.676Z,97.2
2023-02-23T03:48:17.192Z,97.1
2023-02-23T03:49:16.700Z,97.0
2023-02-23T03:50:17.244Z,97.1
2023-02-23T03:51:17.417Z,97.2
2023-02-23T03:52:17.181Z,97.2
2023-02-23T03:53:16.667Z,97.2
2023-02-23T03:54:17.189Z,97.2
2023-02-23T03:55:16.697Z,97.2
2023-02-23T03:56:17.183Z,97.2
2023-02-23T03:57:16.651Z,97.2
2023-02-23T03:58:17.135Z,97.2
2023-02-23T03:59:16.624Z,97.2
2023-02-23T04:00:17.125Z,97.2
2023-02-23T04:01:17.396Z,97.1
2023-02-23T04:02:17.410Z,97.1
2023-02-23T04:03:16.956Z,97.1
2023-02-23T04:04:17.466Z,97.2
2023-02-23T04:05:16.992Z,97.2
2023-02-23T04:06:16.518Z,97.1
2023-02-23T04:07:17.035Z,97.2
2023-02-23T04:08:16.539Z,97.1
2023-02-23T04:09:17.042Z,97.1
2023-02-23T04:10:16.568Z,97.1
2023-02-23T04:11:18.006Z,97.3
2023-02-23T04:12:16.629Z,97.4
2023-02-23T04:13:17.204Z,97.4
2023-02-23T04:14:16.683Z,97.4
2023-02-23T04:15:17.183Z,97.5
2023-02-23T04:16:16.724Z,97.5
2023-02-23T04:17:17.275Z,97.5
2023-02-23T04:18:16.822Z,97.5
2023-02-23T04:19:17.323Z,97.4
2023-02-23T04:20:16.799Z,97.4
2023-02-23T04:21:18.089Z,97.6
2023-02-23T04:22:16.676Z,97.6
2023-02-23T04:23:17.182Z,97.7
2023-02-23T04:24:16.694Z,97.7
2023-02-23T04:25:17.651Z,97.6
2023-02-23T04:26:17.128Z,97.6
2023-02-23T04:27:16.645Z,97.5
2023-02-23T04:28:17.192Z,97.4
2023-02-23T04:29:16.731Z,97.4
2023-02-23T04:30:17.215Z,97.4
2023-02-23T04:31:17.616Z,97.4
2023-02-23T04:32:17.616Z,97.5
2023-02-23T04:33:17.172Z,97.4
2023-02-23T04:34:16.682Z,97.5
2023-02-23T04:35:17.191Z,97.6
2023-02-23T04:36:16.719Z,97.7
2023-02-23T04:37:17.212Z,97.6
2023-02-23T04:38:16.744Z,97.6
2023-02-23T04:39:17.221Z,97.5
2023-02-23T04:40:16.696Z,97.5
2023-02-23T04:41:17.985Z,97.4
2023-02-23T04:42:16.710Z,97.3
2023-02-23T04:43:17.208Z,97.3
2023-02-23T04:44:16.714Z,97.3
2023-02-23T04:45:17.222Z,97.4
2023-02-23T04:46:16.817Z,97.4
2023-02-23T04:47:17.411Z,97.4
2023-02-23T04:48:16.949Z,97.4
2023-02-23T04:49:17.440Z,97.4
2023-02-23T04:50:16.926Z,97.3
2023-02-23T04:51:17.875Z,97.3
2023-02-23T04:52:17.292Z,97.3
2023-02-23T04:53:16.789Z,97.3
2023-02-23T04:54:17.288Z,97.3
2023-02-23T04:55:16.807Z,97.2
2023-02-23T04:56:17.307Z,97.2
2023-02-23T04:57:16.796Z,97.2
2023-02-23T04:58:17.292Z,97.3
2023-02-23T04:59:16.818Z,97.2
2023-02-23T05:00:17.336Z,97.3
2023-02-23T05:01:17.832Z,97.3
2023-02-23T05:02:16.469Z,97.3
2023-02-23T05:03:16.959Z,97.3
2023-02-23T05:04:17.442Z,97.3
2023-02-23T05:05:16.940Z,97.2
2023-02-23T05:06:17.450Z,97.2
2023-02-23T05:07:16.925Z,97.3
2023-02-23T05:08:17.438Z,97.2
2023-02-23T05:09:16.936Z,97.4
2023-02-23T05:10:17.486Z,97.5
2023-02-23T05:11:17.466Z,97.5
2023-02-23T05:12:16.861Z,97.5
2023-02-23T05:13:17.359Z,97.5
2023-02-23T05:14:16.886Z,97.4
2023-02-23T05:15:17.390Z,97.4
2023-02-23T05:16:16.947Z,97.4
2023-02-23T05:17:17.451Z,97.5
2023-02-23T05:18:16.937Z,97.4
2023-02-23T05:19:17.422Z,97.5
2023-02-23T05:20:16.894Z,97.5
2023-02-23T05:21:17.985Z,97.5
2023-02-23T05:22:17.326Z,97.5
2023-02-23T05:23:16.839Z,97.5
2023-02-23T05:24:17.341Z,97.5
2023-02-23T05:25:16.868Z,97.5
2023-02-23T05:26:17.376Z,97.5
2023-02-23T05:27:16.887Z,97.5
2023-02-23T05:28:17.407Z,97.5
2023-02-23T05:29:16.950Z,97.5
2023-02-23T05:30:17.527Z,97.5
2023-02-23T05:31:17.637Z,97.5
2023-02-23T05:32:16.945Z,97.5
2023-02-23T05:33:18.442Z,97.5
2023-02-23T05:34:16.964Z,97.5
2023-02-23T05:35:17.435Z,97.5
2023-02-23T05:36:16.931Z,97.5
2023-02-23T05:37:17.401Z,97.4
2023-02-23T05:38:16.918Z,97.4
2023-02-23T05:39:17.404Z,97.4
2023-02-23T05:40:16.937Z,97.4
2023-02-23T05:41:18.322Z,97.3
2023-02-23T05:42:16.897Z,97.3
2023-02-23T05:43:17.429Z,97.3
2023-02-23T05:44:16.918Z,97.4
2023-02-23T05:45:17.495Z,97.4
2023-02-23T05:46:17.063Z,97.4
2023-02-23T05:47:16.594Z,97.4
2023-02-23T05:48:17.126Z,97.3
2023-02-23T05:49:16.604Z,97.3
2023-02-23T05:50:17.079Z,97.3
2023-02-23T05:51:16.960Z,97.3
2023-02-23T05:52:16.531Z,97.4
2023-02-23T05:53:17.036Z,97.4
2023-02-23T05:54:16.580Z,97.4
2023-02-23T05:55:17.094Z,97.4
2023-02-23T05:56:16.583Z,97.3
2023-02-23T05:57:17.053Z,97.3
2023-02-23T05:58:16.565Z,97.3
2023-02-23T05:59:17.151Z,97.3
2023-02-23T06:00:16.686Z,97.4
2023-02-23T06:01:18.027Z,97.4
2023-02-23T06:02:16.828Z,97.4
2023-02-23T06:03:17.445Z,97.4
2023-02-23T06:04:16.976Z,97.4
2023-02-23T06:05:16.503Z,97.3
2023-02-23T06:06:16.989Z,97.3
2023-02-23T06:07:16.480Z,97.4
2023-02-23T06:08:17.016Z,97.4
2023-02-23T06:09:16.530Z,97.4
2023-02-23T06:10:17.038Z,97.5
2023-02-23T06:11:16.720Z,97.6
2023-02-23T06:12:17.270Z,97.6
2023-02-23T06:13:16.755Z,97.5
2023-02-23T06:14:17.255Z,97.5
2023-02-23T06:15:16.788Z,97.5
2023-02-23T06:16:17.643Z,97.5
2023-02-23T06:17:17.240Z,97.5
2023-02-23T06:18:16.742Z,97.6
2023-02-23T06:19:17.250Z,97.5
2023-02-23T06:20:16.754Z,97.5
2023-02-23T06:21:17.865Z,97.5
2023-02-23T06:22:17.077Z,97.6
2023-02-23T06:23:16.595Z,97.6
2023-02-23T06:24:17.068Z,97.6
2023-02-23T06:25:16.586Z,97.6
2023-02-23T06:26:17.118Z,97.7
2023-02-23T06:27:16.589Z,97.7
2023-02-23T06:28:17.095Z,97.7
2023-02-23T06:29:16.580Z,97.7
2023-02-23T06:30:17.140Z,97.7
2023-02-23T06:31:17.324Z,97.7
2023-02-23T06:32:17.451Z,97.7
2023-02-23T06:33:17.032Z,97.7
2023-02-23T06:34:16.497Z,97.6
2023-02-23T06:35:16.986Z,97.6
2023-02-23T06:36:16.466Z,97.6
2023-02-23T06:37:16.982Z,97.7
2023-02-23T06:38:16.495Z,97.6
2023-02-23T06:39:16.975Z,97.6
2023-02-23T06:40:16.461Z,97.6
2023-02-23T06:41:17.550Z,97.6
2023-02-23T06:42:17.304Z,97.6
2023-02-23T06:43:16.976Z,97.6
2023-02-23T06:44:16.472Z,97.6
2023-02-23T06:45:16.985Z,97.6
2023-02-23T06:46:16.577Z,97.6
2023-02-23T06:47:17.130Z,97.6
2023-02-23T06:48:16.608Z,97.5
2023-02-23T06:49:17.093Z,97.5
2023-02-23T06:50:16.611Z,97.5
2023-02-23T06:51:18.013Z,97.5
2023-02-23T06:52:16.514Z,97.5
2023-02-23T06:53:17.015Z,97.5
2023-02-23T06:54:16.498Z,97.5
2023-02-23T06:55:17.039Z,97.5
2023-02-23T06:56:16.546Z,97.5
2023-02-23T06:57:17.067Z,97.5
2023-02-23T06:58:16.558Z,97.5
2023-02-23T06:59:17.072Z,97.4
2023-02-23T07:00:16.568Z,97.4
2023-02-23T07:01:17.679Z,97.4
2023-02-23T07:02:16.530Z,97.4
2023-02-23T07:03:16.996Z,97.4
2023-02-23T07:04:17.239Z,97.4
2023-02-23T07:05:16.788Z,97.5
2023-02-23T07:06:17.290Z,97.4
2023-02-23T07:07:16.791Z,97.4
2023-02-23T07:08:17.290Z,97.4
2023-02-23T07:09:16.797Z,97.3
2023-02-23T07:10:17.329Z,97.3
2023-02-23T07:11:17.769Z,97.4
2023-02-23T07:12:16.577Z,97.5
2023-02-23T07:13:17.059Z,97.5
2023-02-23T07:14:27.231Z,97.5
2023-02-23T07:15:16.841Z,97.4
2023-02-23T07:16:17.412Z,97.4
2023-02-23T07:17:16.878Z,97.4
2023-02-23T07:18:17.378Z,97.4
2023-02-23T07:19:16.902Z,97.4
2023-02-23T07:20:17.435Z,97.4
2023-02-23T07:21:17.457Z,97.4
2023-02-23T07:22:17.348Z,97.3
2023-02-23T07:23:16.850Z,97.3
2023-02-23T07:24:17.328Z,97.3
2023-02-23T07:25:16.838Z,97.3
2023-02-23T07:26:17.297Z,97.4
2023-02-23T07:27:16.762Z,97.4
2023-02-23T07:28:17.270Z,97.4
2023-02-23T07:29:16.767Z,97.4
2023-02-23T07:30:17.275Z,97.4
2023-02-23T07:31:17.081Z,97.4
2023-02-23T07:32:17.679Z,97.4
2023-02-23T07:33:17.293Z,97.3
2023-02-23T07:34:16.787Z,97.3
2023-02-23T07:35:17.289Z,97.3
2023-02-23T07:36:16.786Z,97.4
2023-02-23T07:37:17.323Z,97.4
2023-02-23T07:38:16.817Z,97.4
2023-02-23T07:39:17.280Z,97.4
2023-02-23T07:40:16.809Z,97.4
2023-02-23T07:41:17.993Z,97.3
2023-02-23T07:42:16.998Z,97.4
2023-02-23T07:43:16.473Z,97.3
2023-02-23T07:44:16.978Z,97.3
2023-02-23T07:45:16.484Z,97.3
2023-02-23T07:46:17.082Z,97.3
2023-02-23T07:47:16.713Z,97.4
2023-02-23T07:48:17.201Z,97.4
2023-02-23T07:49:16.690Z,97.4
2023-02-23T07:50:17.176Z,97.4
2023-02-23T07:51:17.343Z,97.4
2023-02-23T07:52:17.382Z,97.5
2023-02-23T07:53:16.849Z,97.4
2023-02-23T07:54:17.333Z,97.3
2023-02-23T07:55:16.805Z,97.3
2023-02-23T07:56:17.302Z,97.3
2023-02-23T07:57:16.787Z,97.3
2023-02-23T07:58:17.269Z,97.2
2023-02-23T07:59:16.774Z,97.3
2023-02-23T08:00:17.298Z,97.3
2023-02-23T08:01:17.419Z,97.3
2023-02-23T08:02:17.057Z,97.3
2023-02-23T08:03:16.572Z,97.3
2023-02-23T08:04:17.245Z,97.3
2023-02-23T08:05:16.738Z,97.3
2023-02-23T08:06:17.213Z,97.3
2023-02-23T08:07:16.702Z,97.2
2023-02-23T08:08:17.261Z,97.2
2023-02-23T08:09:16.891Z,97.1
2023-02-23T08:10:17.399Z,97.0
2023-02-23T08:11:17.574Z,97.0
2023-02-23T08:12:16.882Z,97.0
2023-02-23T08:13:17.412Z,97.0
2023-02-23T08:14:16.910Z,97.1
2023-02-23T08:15:17.440Z,97.1
2023-02-23T08:16:17.074Z,97.1
2023-02-23T08:17:16.572Z,97.1
2023-02-23T08:18:17.146Z,97.1
2023-02-23T08:19:16.659Z,97.1
2023-02-23T08:20:17.166Z,97.1
2023-02-23T08:21:16.847Z,97.2
2023-02-23T08:22:17.361Z,97.1
2023-02-23T08:23:16.871Z,96.9
2023-02-23T08:24:17.406Z,96.8
2023-02-23T08:25:16.985Z,96.9
2023-02-23T08:26:16.483Z,97.0
2023-02-23T08:27:16.981Z,97.0
2023-02-23T08:28:16.486Z,97.0
2023-02-23T08:29:16.973Z,97.0
2023-02-23T08:30:16.473Z,97.2
2023-02-23T08:31:17.523Z,97.3
2023-02-23T08:32:16.704Z,97.2
2023-02-23T08:33:17.229Z,97.1
2023-02-23T08:34:16.763Z,97.0
2023-02-23T08:35:17.288Z,97.0
2023-02-23T08:36:16.855Z,97.0
2023-02-23T08:37:16.710Z,96.8
2023-02-23T08:38:16.646Z,96.8
2023-02-23T08:39:17.182Z,96.7
2023-02-23T08:40:16.701Z,96.7
2023-02-23T08:41:18.228Z,96.6
2023-02-23T08:42:16.494Z,96.6
2023-02-23T08:43:17.065Z,96.6
2023-02-23T08:44:16.625Z,96.5
2023-02-23T08:45:17.119Z,96.5
2023-02-23T08:46:16.798Z,96.3
2023-02-23T08:47:17.309Z,96.2
2023-02-23T08:48:16.789Z,96.3
2023-02-23T08:49:17.276Z,96.2
2023-02-23T08:50:16.776Z,96.0
2023-02-23T08:51:17.527Z,96.3
2023-02-23T08:52:17.047Z,96.3
2023-02-23T08:53:16.531Z,96.4
2023-02-23T08:54:17.052Z,96.2
2023-02-23T08:55:16.591Z,96.2
2023-02-23T08:56:17.150Z,96.1
2023-02-23T08:57:16.644Z,96.2
2023-02-23T08:58:17.126Z,96.3
2023-02-23T08:59:16.633Z,96.2
2023-02-23T09:00:17.255Z,96.2
2023-02-23T09:01:17.479Z,96.1
2023-02-23T09:02:17.122Z,96.0
2023-02-23T09:03:16.633Z,96.0
2023-02-23T09:04:17.136Z,96.0
2023-02-23T09:05:16.786Z,96.0
2023-02-23T09:06:17.315Z,96.0
2023-02-23T09:07:16.857Z,96.0
2023-02-23T09:08:17.346Z,95.8
2023-02-23T09:09:16.841Z,95.8
2023-02-23T09:10:17.381Z,95.5
2023-02-23T09:11:17.178Z,95.5
2023-02-23T09:12:16.951Z,95.6
2023-02-23T09:13:17.450Z,95.5
2023-02-23T09:14:16.965Z,95.6
2023-02-23T09:15:16.435Z,95.6
2023-02-23T09:16:17.185Z,95.6
2023-02-23T09:17:18.243Z,95.2
2023-02-23T09:18:16.759Z,95.1
2023-02-23T09:19:17.272Z,95.3
2023-02-23T09:20:16.763Z,95.4
2023-02-23T09:21:17.737Z,95.4
2023-02-23T09:22:16.998Z,95.3
2023-02-23T09:23:16.500Z,95.4
2023-02-23T09:24:17.002Z,95.6
2023-02-23T09:25:16.600Z,95.5
2023-02-23T09:26:17.503Z,95.5
2023-02-23T09:27:17.241Z,95.5
2023-02-23T09:28:16.722Z,95.5
2023-02-23T09:29:17.224Z,95.6
2023-02-23T09:30:16.693Z,95.6
2023-02-23T09:31:17.871Z,95.6
2023-02-23T09:32:16.754Z,95.6
2023-02-23T09:33:17.368Z,95.6
2023-02-23T09:34:16.914Z,95.5
2023-02-23T09:35:17.487Z,95.5
2023-02-23T09:36:16.989Z,95.4
2023-02-23T09:37:16.493Z,95.3
2023-02-23T09:38:17.012Z,95.4
2023-02-23T09:39:24.066Z,95.3
2023-02-23T09:40:16.588Z,95.3
2023-02-23T09:41:17.854Z,95.3
2023-02-23T09:42:16.890Z,95.3
2023-02-23T09:43:17.365Z,95.3
2023-02-23T09:44:16.884Z,95.3
2023-02-23T09:45:17.446Z,95.3
2023-02-23T09:46:17.059Z,95.1
2023-02-23T09:47:16.558Z,95.1
2023-02-23T09:48:17.078Z,95.2
2023-02-23T09:49:16.579Z,95.2
2023-02-23T09:50:17.102Z,95.2
2023-02-23T09:51:17.460Z,95.4
2023-02-23T09:52:17.830Z,95.5
2023-02-23T09:53:17.441Z,95.4
2023-02-23T09:54:16.947Z,95.4
2023-02-23T09:55:17.436Z,95.4
2023-02-23T09:56:16.953Z,95.4
2023-02-23T09:57:17.455Z,95.4
2023-02-23T09:58:16.947Z,95.4
2023-02-23T09:59:17.463Z,95.4
2023-02-23T10:00:16.953Z,95.5
2023-02-23T10:01:18.498Z,95.5
2023-02-23T10:02:16.895Z,95.5
2023-02-23T10:03:16.494Z,95.5
2023-02-23T10:04:17.024Z,95.5
2023-02-23T10:05:16.604Z,95.5
2023-02-23T10:06:17.162Z,95.5
2023-02-23T10:07:16.659Z,95.4
2023-02-23T10:08:17.155Z,95.4
2023-02-23T10:09:16.669Z,95.4
2023-02-23T10:10:17.310Z,95.3
2023-02-23T10:11:17.476Z,95.3
2023-02-23T10:12:16.766Z,95.3
2023-02-23T10:13:17.276Z,95.2
2023-02-23T10:14:16.794Z,95.0
2023-02-23T10:15:17.331Z,95.1
2023-02-23T10:16:16.957Z,95.2
2023-02-23T10:17:16.535Z,95.0
2023-02-23T10:18:17.055Z,94.8
2023-02-23T10:19:16.549Z,94.8
2023-02-23T10:20:17.054Z,94.9
2023-02-23T10:21:17.297Z,95.2
2023-02-23T10:22:17.102Z,95.4
2023-02-23T10:23:16.597Z,95.5
2023-02-23T10:24:17.128Z,95.7
2023-02-23T10:25:16.621Z,95.4
2023-02-23T10:26:17.093Z,95.6
2023-02-23T10:27:16.610Z,95.8
2023-02-23T10:28:17.129Z,95.7
2023-02-23T10:29:16.646Z,95.8
2023-02-23T10:30:17.143Z,95.7
2023-02-23T10:31:17.209Z,95.6
2023-02-23T10:32:17.597Z,95.8
2023-02-23T10:33:17.187Z,95.7
2023-02-23T10:34:16.673Z,95.7
2023-02-23T10:35:17.192Z,95.7
2023-02-23T10:36:16.689Z,95.6
2023-02-23T10:37:17.196Z,95.6
2023-02-23T10:38:16.687Z,95.6
2023-02-23T10:39:17.189Z,95.8
2023-02-23T10:40:16.692Z,95.8
2023-02-23T10:41:17.846Z,95.8
2023-02-23T10:42:16.773Z,95.8
2023-02-23T10:43:17.302Z,95.9
2023-02-23T10:44:17.570Z,95.8
2023-02-23T10:45:17.078Z,96.0
2023-02-23T10:46:16.650Z,96.0
2023-02-23T10:47:17.162Z,96.2
2023-02-23T10:48:16.801Z,96.2
2023-02-23T10:49:17.324Z,96.0
2023-02-23T10:50:16.791Z,96.1
2023-02-23T10:51:18.067Z,96.3
2023-02-23T10:52:16.988Z,96.2
2023-02-23T10:53:16.611Z,96.3
2023-02-23T10:54:17.152Z,96.3
2023-02-23T10:55:16.649Z,96.2
2023-02-23T10:56:17.147Z,96.4
2023-02-23T10:57:16.630Z,96.3
2023-02-23T10:58:17.380Z,96.3
2023-02-23T10:59:17.705Z,96.2
2023-02-23T11:00:17.364Z,96.3
2023-02-23T11:01:17.169Z,96.2
2023-02-23T11:02:18.031Z,95.8
2023-02-23T11:03:16.856Z,96.0
2023-02-23T11:04:17.915Z,95.7
2023-02-23T11:05:17.483Z,95.7
2023-02-23T11:06:17.578Z,95.9
2023-02-23T11:07:18.170Z,95.9
2023-02-23T11:08:16.664Z,96.0
2023-02-23T11:09:17.463Z,95.9
2023-02-23T11:10:17.265Z,95.7
2023-02-23T11:11:17.411Z,95.7
2023-02-23T11:12:16.979Z,95.7
2023-02-23T11:13:16.530Z,95.8
2023-02-23T11:14:17.075Z,95.7
2023-02-23T11:15:16.578Z,95.8
2023-02-23T11:16:17.163Z,95.7
2023-02-23T11:17:16.641Z,95.7
2023-02-23T11:18:17.132Z,95.9
2023-02-23T11:19:16.621Z,95.9
2023-02-23T11:20:17.105Z,96.0
2023-02-23T11:21:16.646Z,96.0
2023-02-23T11:22:17.291Z,95.9
2023-02-23T11:23:16.768Z,95.7
2023-02-23T11:24:17.264Z,95.8
2023-02-23T11:25:16.790Z,95.8
2023-02-23T11:26:17.347Z,95.9
2023-02-23T11:27:16.867Z,96.0
2023-02-23T11:28:17.372Z,95.9
2023-02-23T11:29:16.863Z,95.8
2023-02-23T11:30:17.644Z,95.8
2023-02-23T11:31:18.004Z,95.7
2023-02-23T11:32:17.003Z,95.5
2023-02-23T11:33:16.573Z,95.4
2023-02-23T11:34:17.063Z,95.4
2023-02-23T11:35:16.544Z,95.2
2023-02-23T11:36:17.076Z,95.5
2023-02-23T11:37:16.650Z,95.4
2023-02-23T11:38:17.215Z,95.3
2023-02-23T11:39:16.719Z,95.3
2023-02-23T11:40:17.339Z,95.3
2023-02-23T11:41:17.437Z,95.3
2023-02-23T11:42:17.286Z,95.3
2023-02-23T11:43:16.788Z,95.1
2023-02-23T11:44:17.345Z,95.2
2023-02-23T11:45:16.869Z,95.3
2023-02-23T11:46:18.345Z,95.4
2023-02-23T11:47:17.114Z,95.3
2023-02-23T11:48:16.639Z,95.4
2023-02-23T11:49:17.122Z,95.2
2023-02-23T11:50:16.700Z,95.3
2023-02-23T11:51:17.201Z,95.4
2023-02-23T11:52:16.601Z,95.4
2023-02-23T11:53:17.095Z,95.4
2023-02-23T11:54:16.585Z,95.5
2023-02-23T11:55:17.086Z,95.6
2023-02-23T11:56:16.624Z,95.6
2023-02-23T11:57:17.142Z,95.6
2023-02-23T11:58:16.634Z,95.6
2023-02-23T11:59:17.160Z,95.7
2023-02-23T12:00:16.652Z,95.5
2023-02-23T12:01:17.328Z,95.6
2023-02-23T12:02:16.768Z,95.5
2023-02-23T12:03:17.343Z,95.6
2023-02-23T12:04:16.840Z,95.6
2023-02-23T12:05:17.446Z,95.5
2023-02-23T12:06:17.235Z,95.5
2023-02-23T12:07:16.790Z,95.6
2023-02-23T12:08:17.317Z,95.5
2023-02-23T12:09:16.822Z,95.5
2023-02-23T12:10:17.453Z,95.5
2023-02-23T12:11:16.985Z,95.5
2023-02-23T12:12:16.604Z,95.4
2023-02-23T12:13:17.080Z,95.3
2023-02-23T12:14:16.578Z,95.2
2023-02-23T12:15:17.074Z,95.1
2023-02-23T12:16:16.644Z,95.1
2023-02-23T12:17:17.162Z,94.9
2023-02-23T12:18:16.684Z,94.8
2023-02-23T12:19:17.180Z,94.7
2023-02-23T12:20:16.680Z,94.4
2023-02-23T12:21:17.208Z,94.5
2023-02-23T12:22:16.678Z,94.6
2023-02-23T12:23:17.190Z,94.7
2023-02-23T12:24:16.718Z,94.5
2023-02-23T12:25:17.240Z,94.4
2023-02-23T12:26:17.421Z,94.7
2023-02-23T12:27:17.054Z,94.6
2023-02-23T12:28:19.745Z,94.4
2023-02-23T12:29:17.240Z,94.4
2023-02-23T12:30:16.726Z,94.4
2023-02-23T12:31:17.309Z,94.4
2023-02-23T12:32:17.086Z,94.5
2023-02-23T12:33:16.613Z,94.5
2023-02-23T12:34:17.156Z,94.5
2023-02-23T12:35:16.692Z,94.5
2023-02-23T12:36:17.774Z,94.5
2023-02-23T12:37:16.564Z,94.4
2023-02-23T12:38:17.034Z,94.3
2023-02-23T12:39:16.589Z,94.3
2023-02-23T12:40:17.109Z,94.4
2023-02-23T12:41:16.652Z,94.5
2023-02-23T12:42:17.078Z,94.5
2023-02-23T12:43:16.578Z,94.4
2023-02-23T12:44:17.059Z,94.3
2023-02-23T12:45:16.586Z,94.3
2023-02-23T12:46:17.225Z,94.3
2023-02-23T12:47:16.750Z,94.4
2023-02-23T12:48:17.232Z,94.4
2023-02-23T12:49:16.717Z,94.4
2023-02-23T12:50:17.205Z,94.4
2023-02-23T12:51:19.267Z,94.5
2023-02-23T12:52:17.204Z,94.6
2023-02-23T12:53:16.687Z,94.8
2023-02-23T12:54:17.166Z,94.8
2023-02-23T12:55:16.676Z,94.7
2023-02-23T12:56:17.625Z,94.5
2023-02-23T12:57:17.246Z,94.4
2023-02-23T12:58:16.831Z,94.3
2023-02-23T12:59:17.339Z,94.2
2023-02-23T13:00:16.880Z,94.1
2023-02-23T13:01:18.170Z,94.1
2023-02-23T13:02:17.061Z,94.1
2023-02-23T13:03:16.547Z,94.0
2023-02-23T13:04:17.025Z,94.0
2023-02-23T13:05:16.517Z,93.9
2023-02-23T13:06:17.039Z,93.7
2023-02-23T13:07:16.525Z,93.6
2023-02-23T13:08:17.032Z,93.6
2023-02-23T13:09:16.569Z,93.6
2023-02-23T13:10:17.097Z,93.5
2023-02-23T13:11:16.699Z,93.5
2023-02-23T13:12:17.283Z,93.5
2023-02-23T13:13:16.819Z,93.2
2023-02-23T13:14:17.313Z,93.3
2023-02-23T13:15:16.838Z,93.3
2023-02-23T13:16:17.402Z,93.2
2023-02-23T13:17:16.985Z,93.1
2023-02-23T13:18:16.531Z,93.1